createdAt,value
2023-04-10T00:00:25.423Z,3.70
2023-04-10T00:00:58.076Z,3.40
2023-04-10T00:01:35.896Z,3.57
2023-04-10T00:02:08.368Z,3.57
2023-04-10T00:02:41.130Z,3.77
2023-04-10T00:03:18.354Z,3.50
2023-04-10T00:03:53.827Z,3.00
2023-04-10T00:04:26.552Z,3.90
2023-04-10T00:04:58.976Z,4.00
2023-04-10T00:05:33.953Z,3.53
2023-04-10T00:06:07.773Z,3.50
2023-04-10T00:06:41.870Z,3.67
2023-04-10T00:07:17.361Z,3.60
2023-04-10T00:07:49.650Z,3.77
2023-04-10T00:08:22.137Z,3.80
2023-04-10T00:08:57.088Z,4.27
2023-04-10T00:09:29.882Z,3.93
2023-04-10T00:10:02.251Z,3.30
2023-04-10T00:10:37.167Z,3.73
2023-04-10T00:11:09.517Z,3.67
2023-04-10T00:11:41.833Z,3.63
2023-04-10T00:12:17.137Z,3.30
2023-04-10T00:12:51.353Z,3.40
2023-04-10T00:13:23.719Z,3.60
2023-04-10T00:13:58.672Z,3.90
2023-04-10T00:14:31.019Z,3.77
2023-04-10T00:15:04.614Z,3.43
2023-04-10T00:15:39.513Z,3.50
2023-04-10T00:16:11.893Z,3.43
2023-04-10T00:16:44.348Z,3.77
2023-04-10T00:17:19.377Z,3.03
2023-04-10T00:17:55.488Z,4.03
2023-04-10T00:18:33.168Z,4.10
2023-04-10T00:19:05.529Z,4.03
2023-04-10T00:19:37.916Z,3.30
2023-04-10T00:20:11.185Z,4.00
2023-04-10T00:20:46.359Z,3.90
2023-04-10T00:21:18.708Z,3.17
2023-04-10T00:21:51.127Z,3.87
2023-04-10T00:22:26.034Z,3.67
2023-04-10T00:22:58.377Z,3.50
2023-04-10T00:23:32.096Z,3.70
2023-04-10T00:24:07.674Z,3.87
2023-04-10T00:24:39.973Z,4.00
2023-04-10T00:25:12.320Z,3.70
2023-04-10T00:25:47.246Z,3.80
2023-04-10T00:26:21.118Z,3.47
2023-04-10T00:26:53.497Z,4.00
2023-04-10T00:27:28.613Z,3.73
2023-04-10T00:28:00.953Z,4.00
2023-04-10T00:28:33.321Z,4.33
2023-04-10T00:29:06.670Z,4.00
2023-04-10T00:29:41.893Z,3.90
2023-04-10T00:30:14.284Z,4.40
2023-04-10T00:30:46.639Z,3.30
2023-04-10T00:31:21.742Z,3.80
2023-04-10T00:31:54.168Z,4.47
2023-04-10T00:32:26.592Z,4.07
2023-04-10T00:33:01.976Z,4.10
2023-04-10T00:33:36.980Z,3.50
2023-04-10T00:34:09.462Z,3.70
2023-04-10T00:34:44.387Z,4.00
2023-04-10T00:35:16.953Z,3.70
2023-04-10T00:35:49.301Z,4.03
2023-04-10T00:36:24.305Z,4.53
2023-04-10T00:36:59.274Z,4.03
2023-04-10T00:37:31.641Z,4.23
2023-04-10T00:38:06.596Z,4.60
2023-04-10T00:38:38.912Z,4.43
2023-04-10T00:39:11.483Z,4.20
2023-04-10T00:39:46.567Z,4.17
2023-04-10T00:40:18.896Z,3.80
2023-04-10T00:40:51.204Z,4.03
2023-04-10T00:41:26.594Z,3.47
2023-04-10T00:41:58.987Z,3.83
2023-04-10T00:42:31.956Z,3.90
2023-04-10T00:43:06.963Z,4.20
2023-04-10T00:43:39.264Z,3.33
2023-04-10T00:44:11.646Z,4.30
2023-04-10T00:44:43.959Z,3.57
2023-04-10T00:45:18.895Z,4.23
2023-04-10T00:45:51.482Z,4.47
2023-04-10T00:46:24.075Z,3.73
2023-04-10T00:46:59.105Z,4.00
2023-04-10T00:47:32.312Z,3.97
2023-04-10T00:48:04.988Z,3.80
2023-04-10T00:48:42.587Z,3.70
2023-04-10T00:49:14.954Z,3.60
2023-04-10T00:49:47.319Z,3.70
2023-04-10T00:50:23.092Z,4.30
2023-04-10T00:50:55.441Z,4.27
2023-04-10T00:51:27.776Z,4.30
2023-04-10T00:52:02.798Z,3.83
2023-04-10T00:52:35.407Z,4.20
2023-04-10T00:53:07.767Z,4.13
2023-04-10T00:53:42.803Z,4.07
2023-04-10T00:54:15.941Z,4.03
2023-04-10T00:54:48.261Z,3.80
2023-04-10T00:55:20.834Z,3.93
2023-04-10T00:55:56.236Z,3.87
2023-04-10T00:56:29.107Z,3.80
2023-04-10T00:57:01.978Z,4.07
2023-04-10T00:57:37.114Z,3.77
2023-04-10T00:58:13.684Z,4.23
2023-04-10T00:58:48.593Z,4.30
2023-04-10T00:59:20.968Z,4.10
2023-04-10T00:59:54.161Z,3.73
2023-04-10T01:00:29.061Z,4.03
2023-04-10T01:01:02.299Z,3.67
2023-04-10T01:01:34.690Z,4.13
2023-04-10T01:02:07.149Z,4.30
2023-04-10T01:02:42.206Z,4.03
2023-04-10T01:03:16.806Z,4.30
2023-04-10T01:03:52.916Z,4.00
2023-04-10T01:04:29.328Z,4.00
2023-04-10T01:05:03.594Z,3.97
2023-04-10T01:05:43.645Z,4.17
2023-04-10T01:06:23.401Z,4.30
2023-04-10T01:07:00.177Z,3.90
2023-04-10T01:07:42.348Z,4.70
2023-04-10T01:08:24.770Z,3.63
2023-04-10T01:09:01.290Z,3.90
2023-04-10T01:09:39.955Z,4.03
2023-04-10T01:10:19.950Z,3.40
2023-04-10T01:10:58.734Z,3.70
2023-04-10T01:11:45.948Z,3.70
2023-04-10T01:12:26.591Z,3.73
2023-04-10T01:13:06.703Z,3.33
2023-04-10T01:13:45.414Z,3.47
2023-04-10T01:14:27.967Z,3.53
2023-04-10T01:15:07.001Z,3.10
2023-04-10T01:15:48.862Z,3.60
2023-04-10T01:16:25.772Z,3.40
2023-04-10T01:17:02.526Z,3.40
2023-04-10T01:17:42.927Z,3.37
2023-04-10T01:18:21.915Z,3.63
2023-04-10T01:19:02.554Z,3.40
2023-04-10T01:20:05.332Z,3.40
2023-04-10T01:20:39.815Z,3.70
2023-04-10T01:21:13.052Z,3.67
2023-04-10T01:21:45.958Z,3.40
2023-04-10T01:22:22.021Z,3.57
2023-04-10T01:23:09.459Z,3.53
2023-04-10T01:24:11.933Z,3.30
2023-04-10T01:24:54.080Z,3.20
2023-04-10T01:25:39.001Z,3.50
2023-04-10T01:26:17.569Z,3.10
2023-04-10T01:27:06.320Z,3.53
2023-04-10T01:27:47.049Z,3.90
2023-04-10T01:28:54.845Z,3.50
2023-04-10T01:29:29.994Z,3.53
2023-04-10T01:30:07.539Z,3.40
2023-04-10T01:30:43.199Z,3.20
2023-04-10T01:31:19.138Z,3.17
2023-04-10T01:31:55.476Z,3.20
2023-04-10T01:32:32.450Z,3.90
2023-04-10T01:33:06.652Z,3.23
2023-04-10T01:33:41.190Z,3.23
2023-04-10T01:34:27.252Z,3.90
2023-04-10T01:35:00.972Z,3.40
2023-04-10T01:35:34.320Z,3.40
2023-04-10T01:36:11.479Z,3.30
2023-04-10T01:36:49.345Z,3.30
2023-04-10T01:37:24.341Z,3.50
2023-04-10T01:38:01.308Z,3.70
2023-04-10T01:38:34.092Z,3.80
2023-04-10T01:39:07.565Z,3.80
2023-04-10T01:39:44.833Z,3.50
2023-04-10T01:40:20.021Z,3.80
2023-04-10T01:40:54.007Z,3.47
2023-04-10T01:41:37.291Z,3.67
2023-04-10T01:42:11.646Z,3.80
2023-04-10T01:42:50.581Z,3.50
2023-04-10T01:43:26.596Z,3.40
2023-04-10T01:44:04.315Z,3.73
2023-04-10T01:44:41.159Z,3.90
2023-04-10T01:45:18.511Z,3.27
2023-04-10T01:45:53.494Z,3.77
2023-04-10T01:46:29.902Z,3.67
2023-04-10T01:47:03.280Z,3.40
2023-04-10T01:47:35.986Z,3.60
2023-04-10T01:48:11.036Z,3.13
2023-04-10T01:48:44.081Z,3.40
2023-04-10T01:49:17.002Z,3.47
2023-04-10T01:49:52.254Z,3.93
2023-04-10T01:50:25.242Z,3.13
2023-04-10T01:50:58.002Z,3.70
2023-04-10T01:51:34.626Z,3.80
2023-04-10T01:52:11.868Z,3.37
2023-04-10T01:52:45.778Z,3.10
2023-04-10T01:53:27.230Z,3.37
2023-04-10T01:54:00.186Z,3.70
2023-04-10T01:54:33.497Z,3.80
2023-04-10T01:55:11.680Z,3.03
2023-04-10T01:55:50.589Z,3.87
2023-04-10T01:56:24.039Z,3.20
2023-04-10T01:56:59.177Z,3.53
2023-04-10T01:57:32.310Z,3.10
2023-04-10T01:58:05.263Z,3.27
2023-04-10T01:58:40.537Z,3.43
2023-04-10T01:59:15.776Z,3.10
2023-04-10T01:59:48.432Z,3.27
2023-04-10T02:00:23.414Z,3.70
2023-04-10T02:00:56.993Z,4.03
2023-04-10T02:01:30.635Z,3.40
2023-04-10T02:02:07.989Z,3.83
2023-04-10T02:02:41.129Z,3.53
2023-04-10T02:03:16.571Z,3.37
2023-04-10T02:03:49.228Z,3.40
2023-04-10T02:04:21.765Z,3.80
2023-04-10T02:04:56.887Z,3.57
2023-04-10T02:05:46.978Z,3.40
2023-04-10T02:06:27.561Z,3.73
2023-04-10T02:07:04.240Z,3.60
2023-04-10T02:07:41.556Z,3.10
2023-04-10T02:08:19.846Z,3.60
2023-04-10T02:08:56.971Z,3.60
2023-04-10T02:09:34.440Z,3.30
2023-04-10T02:10:14.203Z,3.63
2023-04-10T02:10:53.198Z,4.00
2023-04-10T02:11:32.429Z,3.77
2023-04-10T02:12:09.693Z,3.20
2023-04-10T02:12:46.526Z,3.43
2023-04-10T02:13:21.699Z,3.50
2023-04-10T02:14:01.248Z,3.17
2023-04-10T02:14:39.353Z,3.37
2023-04-10T02:15:15.763Z,3.17
2023-04-10T02:15:51.362Z,4.30
2023-04-10T02:16:24.701Z,3.30
2023-04-10T02:17:00.258Z,3.20
2023-04-10T02:17:34.066Z,3.17
2023-04-10T02:18:08.572Z,4.00
2023-04-10T02:18:44.765Z,3.03
2023-04-10T02:19:17.867Z,3.30
2023-04-10T02:19:51.791Z,3.37
2023-04-10T02:20:27.063Z,3.80
2023-04-10T02:20:59.411Z,3.30
2023-04-10T02:22:09.120Z,3.33
2023-04-10T02:22:44.030Z,3.97
2023-04-10T02:23:17.477Z,3.53
2023-04-10T02:23:52.649Z,3.00
2023-04-10T02:24:25.432Z,3.30
2023-04-10T02:24:58.039Z,3.90
2023-04-10T02:25:34.808Z,3.30
2023-04-10T02:26:08.209Z,3.50
2023-04-10T02:26:47.448Z,3.80
2023-04-10T02:27:30.477Z,3.70
2023-04-10T02:28:05.458Z,3.60
2023-04-10T02:28:38.630Z,3.20
2023-04-10T02:29:15.021Z,3.53
2023-04-10T02:29:49.925Z,3.00
2023-04-10T02:30:22.381Z,3.40
2023-04-10T02:30:57.854Z,3.50
2023-04-10T02:31:30.189Z,3.30
2023-04-10T02:32:02.599Z,3.40
2023-04-10T02:32:37.938Z,3.43
2023-04-10T02:33:13.458Z,2.70
2023-04-10T02:33:45.798Z,3.53
2023-04-10T02:34:20.778Z,3.30
2023-04-10T02:34:53.245Z,2.93
2023-04-10T02:35:25.762Z,3.60
2023-04-10T02:36:00.716Z,3.33
2023-04-10T02:36:35.566Z,3.70
2023-04-10T02:37:08.015Z,3.50
2023-04-10T02:37:43.022Z,3.50
2023-04-10T02:38:17.365Z,3.60
2023-04-10T02:38:49.860Z,3.13
2023-04-10T02:39:25.179Z,3.47
2023-04-10T02:39:58.029Z,3.97
2023-04-10T02:40:31.815Z,3.80
2023-04-10T02:41:21.134Z,3.53
2023-04-10T02:41:53.597Z,3.13
2023-04-10T02:42:26.189Z,3.30
2023-04-10T02:43:05.114Z,4.10
2023-04-10T02:43:37.528Z,3.60
2023-04-10T02:44:10.130Z,3.10
2023-04-10T02:44:45.159Z,3.00
2023-04-10T02:45:20.727Z,3.27
2023-04-10T02:45:53.260Z,4.07
2023-04-10T02:46:33.665Z,3.20
2023-04-10T02:47:06.483Z,3.70
2023-04-10T02:47:40.623Z,3.47
2023-04-10T02:48:15.769Z,3.67
2023-04-10T02:48:48.183Z,3.47
2023-04-10T02:49:20.578Z,3.70
2023-04-10T02:49:55.645Z,3.80
2023-04-10T02:50:29.881Z,3.50
2023-04-10T02:51:02.420Z,3.03
2023-04-10T02:51:38.568Z,3.43
2023-04-10T02:52:11.145Z,3.80
2023-04-10T02:52:43.472Z,3.77
2023-04-10T02:53:16.831Z,3.40
2023-04-10T02:53:53.538Z,3.10
2023-04-10T02:54:36.095Z,3.40
2023-04-10T02:55:09.191Z,3.87
2023-04-10T02:55:46.090Z,3.50
2023-04-10T02:56:19.206Z,3.60
2023-04-10T02:56:51.594Z,3.43
2023-04-10T02:57:23.932Z,3.43
2023-04-10T02:57:58.892Z,3.60
2023-04-10T02:58:31.789Z,3.53
2023-04-10T02:59:05.621Z,3.50
2023-04-10T02:59:41.410Z,3.40
2023-04-10T03:00:14.782Z,3.60
2023-04-10T03:01:16.377Z,3.60
2023-04-10T03:01:51.137Z,3.50
2023-04-10T03:02:23.910Z,3.30
2023-04-10T03:02:59.694Z,2.87
2023-04-10T03:03:38.143Z,3.80
2023-04-10T03:04:10.791Z,3.30
2023-04-10T03:04:48.302Z,3.40
2023-04-10T03:05:20.907Z,3.17
2023-04-10T03:05:53.713Z,3.50
2023-04-10T03:06:34.625Z,3.27
2023-04-10T03:07:06.981Z,4.00
2023-04-10T03:07:41.334Z,3.40
2023-04-10T03:08:17.628Z,3.63
2023-04-10T03:08:50.861Z,3.40
2023-04-10T03:09:23.275Z,3.30
2023-04-10T03:09:58.202Z,3.60
2023-04-10T03:10:30.635Z,3.40
2023-04-10T03:11:03.107Z,3.20
2023-04-10T03:11:36.015Z,3.83
2023-04-10T03:12:11.001Z,3.60
2023-04-10T03:12:43.346Z,3.63
2023-04-10T03:13:15.996Z,3.40
2023-04-10T03:13:51.742Z,3.50
2023-04-10T03:14:24.577Z,3.93
2023-04-10T03:14:56.949Z,3.40
2023-04-10T03:15:29.264Z,3.10
2023-04-10T03:16:06.081Z,3.80
2023-04-10T03:16:41.324Z,3.60
2023-04-10T03:17:13.857Z,3.70
2023-04-10T03:17:48.894Z,3.20
2023-04-10T03:18:21.304Z,2.93
2023-04-10T03:18:57.182Z,3.30
2023-04-10T03:19:32.120Z,3.60
2023-04-10T03:20:04.951Z,3.47
2023-04-10T03:20:38.759Z,3.40
2023-04-10T03:21:13.693Z,3.50
2023-04-10T03:21:46.497Z,3.47
2023-04-10T03:22:18.827Z,3.77
2023-04-10T03:22:53.766Z,3.10
2023-04-10T03:23:26.285Z,3.30
2023-04-10T03:23:58.623Z,3.47
2023-04-10T03:24:34.719Z,2.90
2023-04-10T03:25:08.896Z,3.27
2023-04-10T03:25:41.504Z,3.30
2023-04-10T03:26:17.307Z,3.23
2023-04-10T03:26:49.698Z,3.37
2023-04-10T03:27:22.015Z,2.73
2023-04-10T03:27:56.933Z,3.47
2023-04-10T03:28:29.954Z,3.20
2023-04-10T03:29:02.319Z,3.20
2023-04-10T03:29:37.248Z,3.37
2023-04-10T03:30:11.321Z,3.00
2023-04-10T03:30:46.780Z,3.10
2023-04-10T03:31:21.864Z,3.50
2023-04-10T03:31:58.157Z,3.40
2023-04-10T03:32:31.409Z,3.60
2023-04-10T03:33:06.440Z,2.97
2023-04-10T03:33:38.807Z,3.47
2023-04-10T03:34:11.833Z,3.33
2023-04-10T03:34:46.756Z,3.03
2023-04-10T03:35:20.174Z,3.20
2023-04-10T03:35:53.877Z,3.40
2023-04-10T03:36:29.016Z,3.50
2023-04-10T03:37:01.378Z,3.20
2023-04-10T03:37:33.899Z,3.40
2023-04-10T03:38:08.829Z,3.10
2023-04-10T03:38:41.586Z,3.13
2023-04-10T03:39:14.939Z,3.53
2023-04-10T03:39:49.918Z,3.37
2023-04-10T03:40:22.240Z,3.50
2023-04-10T03:40:54.555Z,3.27
2023-04-10T03:41:32.168Z,3.00
2023-04-10T03:42:04.871Z,3.40
2023-04-10T03:42:37.601Z,3.37
2023-04-10T03:43:10.498Z,3.33
2023-04-10T03:43:45.620Z,3.23
2023-04-10T03:44:18.799Z,3.60
2023-04-10T03:44:51.257Z,3.20
2023-04-10T03:45:28.347Z,3.30
2023-04-10T03:46:01.922Z,3.40
2023-04-10T03:46:34.725Z,3.43
2023-04-10T03:47:12.513Z,3.27
2023-04-10T03:47:52.477Z,3.47
2023-04-10T03:48:28.376Z,3.63
2023-04-10T03:49:03.549Z,3.70
2023-04-10T03:49:38.058Z,3.10
2023-04-10T03:50:12.265Z,3.30
2023-04-10T03:50:54.525Z,4.00
2023-04-10T03:51:27.658Z,3.17
2023-04-10T03:52:02.617Z,3.17
2023-04-10T03:52:35.125Z,3.07
2023-04-10T03:53:07.458Z,2.97
2023-04-10T03:53:42.720Z,2.67
2023-04-10T03:54:19.743Z,3.33
2023-04-10T03:54:54.246Z,3.40
2023-04-10T03:55:35.590Z,3.60
2023-04-10T03:56:09.187Z,3.33
2023-04-10T03:56:42.034Z,3.53
2023-04-10T03:57:18.819Z,3.10
2023-04-10T03:57:51.237Z,3.37
2023-04-10T03:58:26.641Z,3.10
2023-04-10T03:59:03.439Z,3.23
2023-04-10T03:59:43.030Z,4.10
2023-04-10T04:00:18.253Z,3.20
2023-04-10T04:00:53.272Z,3.00
2023-04-10T04:01:48.552Z,6.00
2023-04-10T04:02:23.680Z,3.53
2023-04-10T04:02:56.544Z,3.57
2023-04-10T04:03:54.767Z,3.13
2023-04-10T04:04:46.151Z,3.30
2023-04-10T04:05:41.542Z,3.20
2023-04-10T04:06:28.334Z,3.43
2023-04-10T04:07:24.250Z,3.23
2023-04-10T04:08:16.813Z,3.70
2023-04-10T04:09:12.000Z,3.37
2023-04-10T04:09:56.554Z,3.67
2023-04-10T04:10:51.840Z,3.47
2023-04-10T04:11:41.304Z,3.60
2023-04-10T04:12:36.480Z,3.00
2023-04-10T04:13:14.960Z,4.00
2023-04-10T04:14:12.752Z,3.10
2023-04-10T04:15:00.573Z,3.63
2023-04-10T04:15:56.122Z,3.53
2023-04-10T04:16:51.114Z,3.50
2023-04-10T04:17:54.889Z,2.87
2023-04-10T04:18:56.423Z,3.77
2023-04-10T04:20:00.273Z,3.60
2023-04-10T04:21:14.440Z,3.20
2023-04-10T04:22:04.529Z,3.13
2023-04-10T04:22:57.905Z,3.37
2023-04-10T04:23:45.246Z,3.27
2023-04-10T04:24:52.829Z,3.30
2023-04-10T04:25:37.484Z,3.00
2023-04-10T04:26:31.321Z,3.00
2023-04-10T04:27:33.088Z,3.33
2023-04-10T04:28:17.693Z,3.20
2023-04-10T04:29:09.377Z,3.33
2023-04-10T04:29:52.253Z,3.30
2023-04-10T04:30:40.503Z,3.37
2023-04-10T04:31:32.808Z,3.33
2023-04-10T04:32:32.494Z,3.30
2023-04-10T04:33:41.023Z,3.00
2023-04-10T04:34:31.207Z,3.50
2023-04-10T04:35:26.933Z,3.63
2023-04-10T04:36:18.002Z,3.63
2023-04-10T04:37:28.412Z,2.97
2023-04-10T04:38:21.691Z,3.50
2023-04-10T04:39:08.198Z,3.40
2023-04-10T04:39:55.161Z,3.37
2023-04-10T04:40:53.387Z,3.17
2023-04-10T04:41:44.122Z,3.33
2023-04-10T04:42:38.815Z,3.53
2023-04-10T04:43:28.727Z,3.20
2023-04-10T04:44:10.466Z,3.50
2023-04-10T04:45:01.531Z,3.43
2023-04-10T04:45:45.370Z,3.77
2023-04-10T04:46:33.411Z,3.23
2023-04-10T04:47:28.628Z,3.60
2023-04-10T04:48:12.255Z,2.70
2023-04-10T04:49:08.094Z,3.33
2023-04-10T04:49:53.668Z,3.50
2023-04-10T04:50:36.734Z,3.80
2023-04-10T04:51:32.022Z,3.60
2023-04-10T04:52:20.781Z,3.20
2023-04-10T04:53:08.126Z,3.53
2023-04-10T04:54:01.779Z,3.40
2023-04-10T04:54:47.046Z,3.20
2023-04-10T04:55:45.615Z,3.40
2023-04-10T04:56:37.121Z,3.60
2023-04-10T04:57:34.567Z,3.60
2023-04-10T04:58:25.609Z,3.67
2023-04-10T04:59:20.889Z,3.50
2023-04-10T05:00:14.598Z,3.20
2023-04-10T05:01:08.736Z,3.30
2023-04-10T05:02:07.536Z,3.57
2023-04-10T05:03:08.263Z,3.30
2023-04-10T05:03:56.859Z,3.10
2023-04-10T05:05:12.973Z,2.87
2023-04-10T05:05:50.620Z,3.07
2023-04-10T05:06:22.977Z,3.17
2023-04-10T05:07:18.554Z,3.00
2023-04-10T05:08:01.675Z,3.40
2023-04-10T05:08:59.074Z,3.10
2023-04-10T05:09:47.130Z,3.80
2023-04-10T05:10:42.016Z,3.00
2023-04-10T05:11:25.973Z,3.27
2023-04-10T05:12:07.186Z,3.50
2023-04-10T05:12:58.173Z,3.30
2023-04-10T05:13:47.073Z,3.47
2023-04-10T05:14:39.641Z,3.17
2023-04-10T05:15:46.534Z,2.70
2023-04-10T05:16:39.197Z,3.50
2023-04-10T05:17:22.852Z,3.40
2023-04-10T05:18:10.213Z,2.80
2023-04-10T05:19:08.342Z,2.90
2023-04-10T05:20:01.082Z,3.67
2023-04-10T05:21:11.339Z,3.10
2023-04-10T05:22:05.323Z,2.63
2023-04-10T05:22:53.664Z,3.23
2023-04-10T05:23:44.510Z,3.10
2023-04-10T05:24:37.969Z,3.00
2023-04-10T05:25:21.946Z,3.27
2023-04-10T05:26:17.125Z,3.10
2023-04-10T05:27:11.540Z,3.10
2023-04-10T05:28:02.353Z,2.73
2023-04-10T05:28:59.994Z,3.33
2023-04-10T05:30:04.377Z,3.47
2023-04-10T05:30:47.455Z,3.13
2023-04-10T05:31:41.444Z,3.17
2023-04-10T05:32:31.766Z,3.30
2023-04-10T05:33:26.432Z,2.90
2023-04-10T05:34:13.865Z,3.30
2023-04-10T05:35:15.092Z,3.13
2023-04-10T05:36:02.473Z,3.43
2023-04-10T05:36:50.544Z,3.07
2023-04-10T05:37:27.581Z,3.40
2023-04-10T05:38:21.138Z,3.03
2023-04-10T05:39:16.874Z,3.80
2023-04-10T05:40:24.057Z,3.17
2023-04-10T05:41:02.542Z,3.13
2023-04-10T05:41:56.385Z,3.07
2023-04-10T05:42:34.490Z,3.17
2023-04-10T05:43:30.017Z,3.00
2023-04-10T05:44:22.621Z,3.00
2023-04-10T05:45:33.165Z,3.60
2023-04-10T05:46:23.883Z,3.20
2023-04-10T05:47:14.398Z,3.70
2023-04-10T05:48:09.624Z,2.90
2023-04-10T05:49:13.674Z,3.10
2023-04-10T05:50:07.356Z,3.40
2023-04-10T05:51:17.883Z,3.40
2023-04-10T05:52:11.151Z,3.47
2023-04-10T05:52:59.209Z,3.07
2023-04-10T05:53:46.885Z,3.23
2023-04-10T05:54:59.937Z,3.70
2023-04-10T05:55:44.359Z,3.20
2023-04-10T05:56:42.361Z,3.23
2023-04-10T05:57:39.828Z,3.00
2023-04-10T05:58:35.806Z,3.63
2023-04-10T05:59:28.465Z,3.83
2023-04-10T06:00:29.563Z,3.90
2023-04-10T06:01:20.765Z,3.60
2023-04-10T06:02:04.213Z,3.17
2023-04-10T06:02:36.835Z,3.50
2023-04-10T06:03:12.192Z,3.20
2023-04-10T06:03:57.973Z,3.97
2023-04-10T06:04:31.041Z,3.63
2023-04-10T06:05:07.769Z,4.00
2023-04-10T06:05:41.747Z,3.10
2023-04-10T06:06:14.152Z,3.70
2023-04-10T06:06:49.149Z,4.30
2023-04-10T06:07:24.052Z,4.43
2023-04-10T06:07:58.338Z,4.97
2023-04-10T06:08:34.863Z,4.47
2023-04-10T06:09:07.554Z,4.37
2023-04-10T06:09:40.006Z,4.07
2023-04-10T06:10:16.712Z,4.30
2023-04-10T06:10:49.065Z,4.53
2023-04-10T06:11:21.994Z,4.23
2023-04-10T06:12:01.542Z,4.10
2023-04-10T06:12:33.875Z,3.60
2023-04-10T06:13:09.819Z,4.23
2023-04-10T06:13:46.285Z,4.43
2023-04-10T06:14:20.462Z,3.93
2023-04-10T06:14:52.928Z,4.30
2023-04-10T06:15:30.361Z,4.00
2023-04-10T06:16:03.446Z,3.70
2023-04-10T06:16:39.716Z,4.60
2023-04-10T06:17:12.104Z,4.10
2023-04-10T06:17:44.644Z,4.60
2023-04-10T06:18:19.632Z,4.13
2023-04-10T06:18:55.056Z,4.47
2023-04-10T06:19:27.712Z,4.40
2023-04-10T06:20:04.819Z,4.27
2023-04-10T06:20:37.152Z,4.67
2023-04-10T06:21:09.792Z,4.67
2023-04-10T06:21:44.759Z,3.93
2023-04-10T06:22:18.079Z,5.10
2023-04-10T06:22:55.643Z,4.17
2023-04-10T06:23:28.644Z,4.70
2023-04-10T06:24:03.557Z,5.27
2023-04-10T06:24:35.885Z,4.70
2023-04-10T06:25:09.160Z,5.13
2023-04-10T06:25:44.644Z,4.73
2023-04-10T06:26:17.312Z,4.73
2023-04-10T06:26:49.792Z,5.27
2023-04-10T06:27:24.857Z,4.10
2023-04-10T06:27:57.691Z,4.53
2023-04-10T06:28:30.152Z,4.77
2023-04-10T06:29:08.851Z,4.97
2023-04-10T06:29:41.212Z,4.60
2023-04-10T06:30:14.742Z,4.77
2023-04-10T06:30:49.794Z,4.97
2023-04-10T06:31:23.255Z,4.77
2023-04-10T06:31:55.905Z,4.20
2023-04-10T06:32:31.737Z,4.50
2023-04-10T06:33:04.459Z,4.40
2023-04-10T06:33:40.058Z,4.60
2023-04-10T06:34:16.697Z,4.60
2023-04-10T06:34:58.462Z,4.30
2023-04-10T06:35:34.299Z,4.70
2023-04-10T06:36:07.583Z,4.43
2023-04-10T06:36:49.905Z,4.20
2023-04-10T06:37:28.449Z,3.77
2023-04-10T06:38:06.052Z,5.00
2023-04-10T06:38:41.439Z,4.30
2023-04-10T06:39:16.379Z,4.30
2023-04-10T06:39:48.678Z,4.37
2023-04-10T06:40:21.113Z,5.10
2023-04-10T06:40:56.245Z,4.23
2023-04-10T06:41:28.590Z,4.40
2023-04-10T06:42:10.084Z,4.67
2023-04-10T06:43:01.889Z,4.57
2023-04-10T06:43:43.202Z,4.57
2023-04-10T06:44:15.983Z,4.23
2023-04-10T06:44:48.509Z,5.20
2023-04-10T06:45:23.810Z,5.10
2023-04-10T06:45:56.156Z,4.50
2023-04-10T06:46:31.184Z,4.80
2023-04-10T06:47:03.855Z,4.70
2023-04-10T06:47:36.594Z,4.70
2023-04-10T06:48:11.538Z,4.77
2023-04-10T06:48:43.858Z,4.73
2023-04-10T06:49:16.224Z,4.77
2023-04-10T06:49:51.171Z,5.10
2023-04-10T06:50:23.526Z,5.20
2023-04-10T06:51:00.693Z,4.97
2023-04-10T06:51:33.018Z,4.87
2023-04-10T06:52:05.838Z,4.60
2023-04-10T06:52:40.784Z,4.83
2023-04-10T06:53:15.752Z,5.00
2023-04-10T06:53:48.073Z,5.10
2023-04-10T06:54:23.050Z,5.30
2023-04-10T06:54:55.384Z,5.27
2023-04-10T06:55:27.826Z,4.80
2023-04-10T06:56:03.611Z,4.77
2023-04-10T06:56:36.396Z,4.73
2023-04-10T06:57:08.780Z,4.40
2023-04-10T06:57:43.867Z,4.50
2023-04-10T06:58:16.610Z,5.10
2023-04-10T06:58:51.668Z,4.80
2023-04-10T06:59:24.193Z,4.37
2023-04-10T06:59:59.248Z,4.53
2023-04-10T07:00:31.980Z,3.90
2023-04-10T07:01:07.325Z,4.73
2023-04-10T07:01:39.707Z,4.93
2023-04-10T07:02:12.203Z,4.37
2023-04-10T07:02:47.443Z,4.57
2023-04-10T07:03:19.850Z,5.13
2023-04-10T07:03:52.267Z,4.80
2023-04-10T07:04:27.180Z,4.67
2023-04-10T07:04:59.536Z,4.10
2023-04-10T07:05:34.473Z,5.07
2023-04-10T07:06:08.558Z,4.53
2023-04-10T07:06:41.040Z,5.10
2023-04-10T07:07:16.166Z,4.60
2023-04-10T07:07:50.702Z,4.53
2023-04-10T07:08:28.266Z,4.97
2023-04-10T07:09:00.620Z,4.70
2023-04-10T07:09:32.920Z,5.20
2023-04-10T07:10:09.016Z,4.53
2023-04-10T07:10:41.435Z,5.00
2023-04-10T07:11:16.331Z,4.63
2023-04-10T07:11:48.670Z,4.43
2023-04-10T07:12:23.588Z,4.80
2023-04-10T07:12:57.461Z,4.90
2023-04-10T07:13:32.410Z,4.83
2023-04-10T07:14:04.757Z,5.07
2023-04-10T07:14:39.721Z,4.47
2023-04-10T07:15:12.754Z,4.70
2023-04-10T07:15:47.688Z,5.40
2023-04-10T07:16:20.109Z,5.10
2023-04-10T07:16:55.646Z,5.00
2023-04-10T07:17:28.038Z,5.00
2023-04-10T07:18:03.067Z,4.50
2023-04-10T07:18:35.749Z,4.70
2023-04-10T07:19:10.698Z,4.73
2023-04-10T07:19:43.092Z,4.47
2023-04-10T07:20:15.584Z,4.60
2023-04-10T07:20:50.491Z,5.00
2023-04-10T07:21:23.841Z,5.00
2023-04-10T07:21:56.408Z,4.90
2023-04-10T07:22:32.212Z,5.33
2023-04-10T07:23:04.549Z,4.93
2023-04-10T07:23:39.548Z,4.90
2023-04-10T07:24:14.481Z,4.47
2023-04-10T07:24:46.850Z,5.03
2023-04-10T07:25:19.405Z,5.00
2023-04-10T07:25:54.628Z,4.83
2023-04-10T07:26:26.996Z,5.10
2023-04-10T07:27:00.893Z,4.63
2023-04-10T07:27:35.862Z,4.97
2023-04-10T07:28:08.184Z,4.67
2023-04-10T07:28:40.530Z,5.30
2023-04-10T07:29:15.789Z,4.70
2023-04-10T07:29:48.124Z,4.37
2023-04-10T07:30:23.259Z,5.57
2023-04-10T07:30:55.802Z,5.23
2023-04-10T07:31:28.472Z,4.83
2023-04-10T07:32:03.534Z,5.57
2023-04-10T07:32:37.715Z,5.53
2023-04-10T07:33:10.408Z,5.03
2023-04-10T07:33:45.625Z,4.90
2023-04-10T07:34:18.013Z,5.17
2023-04-10T07:34:50.574Z,4.30
2023-04-10T07:35:25.532Z,4.90
2023-04-10T07:35:57.992Z,5.37
2023-04-10T07:36:32.945Z,4.87
2023-04-10T07:37:05.478Z,5.33
2023-04-10T07:37:40.653Z,5.30
2023-04-10T07:38:13.473Z,4.90
2023-04-10T07:38:51.011Z,4.50
2023-04-10T07:39:23.400Z,5.20
2023-04-10T07:39:55.809Z,5.07
2023-04-10T07:40:30.779Z,5.13
2023-04-10T07:41:03.138Z,5.20
2023-04-10T07:41:38.243Z,4.60
2023-04-10T07:42:11.133Z,4.80
2023-04-10T07:42:46.301Z,4.60
2023-04-10T07:43:18.656Z,4.90
2023-04-10T07:43:53.568Z,5.03
2023-04-10T07:44:26.918Z,5.67
2023-04-10T07:44:59.223Z,4.90
2023-04-10T07:45:34.119Z,4.73
2023-04-10T07:46:07.314Z,4.90
2023-04-10T07:46:42.253Z,5.30
2023-04-10T07:47:14.695Z,5.20
2023-04-10T07:47:49.633Z,5.00
2023-04-10T07:48:22.111Z,5.60
2023-04-10T07:48:57.960Z,4.60
2023-04-10T07:49:30.362Z,4.60
2023-04-10T07:50:05.402Z,4.03
2023-04-10T07:50:37.762Z,5.13
2023-04-10T07:51:12.698Z,4.60
2023-04-10T07:51:45.011Z,4.93
2023-04-10T07:52:19.929Z,4.80
2023-04-10T07:52:52.233Z,4.63
2023-04-10T07:53:24.579Z,4.80
2023-04-10T07:54:02.073Z,4.70
2023-04-10T07:54:34.744Z,4.77
2023-04-10T07:55:07.675Z,4.43
2023-04-10T07:55:42.691Z,4.40
2023-04-10T07:56:18.600Z,4.50
2023-04-10T07:56:52.580Z,4.63
2023-04-10T07:57:27.509Z,4.27
2023-04-10T07:57:59.805Z,4.70
2023-04-10T07:58:33.271Z,3.90
2023-04-10T07:59:09.020Z,3.90
2023-04-10T07:59:41.374Z,4.47
2023-04-10T08:00:17.594Z,4.20
2023-04-10T08:00:49.971Z,4.70
2023-04-10T08:01:24.890Z,4.67
2023-04-10T08:01:57.271Z,4.83
2023-04-10T08:02:32.342Z,4.47
2023-04-10T08:03:05.349Z,4.80
2023-04-10T08:03:43.947Z,4.30
2023-04-10T08:04:16.735Z,4.43
2023-04-10T08:04:51.951Z,4.53
2023-04-10T08:05:24.522Z,4.10
2023-04-10T08:05:59.610Z,3.93
2023-04-10T08:06:32.479Z,4.03
2023-04-10T08:07:07.956Z,4.87
2023-04-10T08:07:40.324Z,4.57
2023-04-10T08:08:12.666Z,4.90
2023-04-10T08:08:47.587Z,4.57
2023-04-10T08:09:22.498Z,3.90
2023-04-10T08:09:57.438Z,4.33
2023-04-10T08:10:29.810Z,4.40
2023-04-10T08:11:02.325Z,4.30
2023-04-10T08:11:38.850Z,4.10
2023-04-10T08:12:11.224Z,4.30
2023-04-10T08:12:43.557Z,4.30
2023-04-10T08:13:18.564Z,4.53
2023-04-10T08:13:52.026Z,4.80
2023-04-10T08:14:26.961Z,4.40
2023-04-10T08:14:59.312Z,4.27
2023-04-10T08:15:34.264Z,4.23
2023-04-10T08:16:08.069Z,4.23
2023-04-10T08:16:43.048Z,4.20
2023-04-10T08:17:15.679Z,4.57
2023-04-10T08:17:50.610Z,4.57
2023-04-10T08:18:22.981Z,4.27
2023-04-10T08:18:58.805Z,3.93
2023-04-10T08:19:31.150Z,4.40
2023-04-10T08:20:07.521Z,4.40
2023-04-10T08:20:39.871Z,4.20
2023-04-10T08:21:12.190Z,4.03
2023-04-10T08:21:47.089Z,4.43
2023-04-10T08:22:19.389Z,3.80
2023-04-10T08:22:51.699Z,4.23
2023-04-10T08:23:26.627Z,3.80
2023-04-10T08:24:00.785Z,4.10
2023-04-10T08:24:38.460Z,3.87
2023-04-10T08:25:11.184Z,3.87
2023-04-10T08:25:43.506Z,3.60